sensor_id;sensor_type;location;lat;lon;timestamp;temperature;humidity
55369;DHT22;41247;49.736;8.752;2023-05-10T00:01:28;12.00;99.90
55369;DHT22;41247;49.736;8.752;2023-05-10T00:05:09;12.00;99.90
55369;DHT22;41247;49.736;8.752;2023-05-10T00:08:49;11.90;99.90
55369;DHT22;41247;49.736;8.752;2023-05-10T00:12:30;11.80;99.90
55369;DHT22;41247;49.736;8.752;2023-05-10T00:16:10;11.80;99.90
55369;DHT22;41247;49.736;8.752;2023-05-10T00:19:51;11.70;99.90
55369;DHT22;41247;49.736;8.752;2023-05-10T00:23:32;11.70;99.90
55369;DHT22;41247;49.736;8.752;2023-05-10T00:27:12;11.70;99.90
55369;DHT22;41247;49.736;8.752;2023-05-10T00:30:53;11.60;99.90
55369;DHT22;41247;49.736;8.752;2023-05-10T00:34:33;11.60;99.90
55369;DHT22;41247;49.736;8.752;2023-05-10T00:38:14;11.60;99.90
55369;DHT22;41247;49.736;8.752;2023-05-10T00:41:55;11.60;99.90
55369;DHT22;41247;49.736;8.752;2023-05-10T00:45:36;11.50;99.90
55369;DHT22;41247;49.736;8.752;2023-05-10T00:49:17;11.50;99.90
55369;DHT22;41247;49.736;8.752;2023-05-10T00:52:59;11.50;99.90
55369;DHT22;41247;49.736;8.752;2023-05-10T00:56:40;11.50;99.90
55369;DHT22;41247;49.736;8.752;2023-05-10T01:00:21;11.50;99.90
55369;DHT22;41247;49.736;8.752;2023-05-10T01:04:02;11.50;99.90
55369;DHT22;41247;49.736;8.752;2023-05-10T01:07:43;11.50;99.90
55369;DHT22;41247;49.736;8.752;2023-05-10T01:11:23;11.50;99.90
55369;DHT22;41247;49.736;8.752;2023-05-10T01:15:06;11.40;99.90
55369;DHT22;41247;49.736;8.752;2023-05-10T01:18:48;11.50;99.90
55369;DHT22;41247;49.736;8.752;2023-05-10T01:23:21;11.50;99.90
55369;DHT22;41247;49.736;8.752;2023-05-10T01:27:36;11.50;99.90
55369;DHT22;41247;49.736;8.752;2023-05-10T01:31:55;11.40;99.90
55369;DHT22;41247;49.736;8.752;2023-05-10T01:36:03;11.40;99.90
55369;DHT22;41247;49.736;8.752;2023-05-10T01:39:52;11.40;99.90
55369;DHT22;41247;49.736;8.752;2023-05-10T01:44:16;11.40;99.90
55369;DHT22;41247;49.736;8.752;2023-05-10T01:48:07;11.40;99.90
55369;DHT22;41247;49.736;8.752;2023-05-10T01:51:51;11.40;99.90
55369;DHT22;41247;49.736;8.752;2023-05-10T01:55:39;11.40;99.90
55369;DHT22;41247;49.736;8.752;2023-05-10T01:59:30;11.40;99.90
55369;DHT22;41247;49.736;8.752;2023-05-10T02:03:14;11.40;99.90
55369;DHT22;41247;49.736;8.752;2023-05-10T02:06:57;11.40;99.90
55369;DHT22;41247;49.736;8.752;2023-05-10T02:10:39;11.40;99.90
55369;DHT22;41247;49.736;8.752;2023-05-10T02:14:21;11.40;99.90
55369;DHT22;41247;49.736;8.752;2023-05-10T02:18:02;11.40;99.90
55369;DHT22;41247;49.736;8.752;2023-05-10T02:21:45;11.40;99.90
55369;DHT22;41247;49.736;8.752;2023-05-10T02:25:27;11.40;99.90
55369;DHT22;41247;49.736;8.752;2023-05-10T02:29:09;11.40;99.90
55369;DHT22;41247;49.736;8.752;2023-05-10T02:32:52;11.40;99.90
55369;DHT22;41247;49.736;8.752;2023-05-10T02:36:33;11.40;99.90
55369;DHT22;41247;49.736;8.752;2023-05-10T02:40:15;11.40;99.90
55369;DHT22;41247;49.736;8.752;2023-05-10T02:43:59;11.40;99.90
55369;DHT22;41247;49.736;8.752;2023-05-10T02:47:41;11.30;99.90
55369;DHT22;41247;49.736;8.752;2023-05-10T02:51:25;11.30;99.90
55369;DHT22;41247;49.736;8.752;2023-05-10T02:55:11;11.30;99.90
55369;DHT22;41247;49.736;8.752;2023-05-10T02:58:53;11.30;99.90
55369;DHT22;41247;49.736;8.752;2023-05-10T03:02:33;11.30;99.90
55369;DHT22;41247;49.736;8.752;2023-05-10T03:06:14;11.30;99.90
55369;DHT22;41247;49.736;8.752;2023-05-10T03:09:54;11.20;99.90
55369;DHT22;41247;49.736;8.752;2023-05-10T03:13:43;11.20;99.90
55369;DHT22;41247;49.736;8.752;2023-05-10T03:17:55;11.20;99.90
55369;DHT22;41247;49.736;8.752;2023-05-10T03:21:41;11.20;99.90
55369;DHT22;41247;49.736;8.752;2023-05-10T03:25:25;11.20;99.90
55369;DHT22;41247;49.736;8.752;2023-05-10T03:29:06;11.20;99.90
55369;DHT22;41247;49.736;8.752;2023-05-10T03:32:47;11.20;99.90
55369;DHT22;41247;49.736;8.752;2023-05-10T03:36:28;11.10;99.90
55369;DHT22;41247;49.736;8.752;2023-05-10T03:40:09;11.10;99.90
55369;DHT22;41247;49.736;8.752;2023-05-10T03:43:51;11.10;99.90
55369;DHT22;41247;49.736;8.752;2023-05-10T03:47:31;11.10;99.90
55369;DHT22;41247;49.736;8.752;2023-05-10T03:51:12;11.10;99.90
55369;DHT22;41247;49.736;8.752;2023-05-10T03:54:52;11.20;99.90
55369;DHT22;41247;49.736;8.752;2023-05-10T03:58:33;11.10;99.90
55369;DHT22;41247;49.736;8.752;2023-05-10T04:02:14;11.20;99.90
55369;DHT22;41247;49.736;8.752;2023-05-10T04:06:01;11.20;99.90
55369;DHT22;41247;49.736;8.752;2023-05-10T04:09:41;11.20;99.90
55369;DHT22;41247;49.736;8.752;2023-05-10T04:13:22;11.20;99.90
55369;DHT22;41247;49.736;8.752;2023-05-10T04:17:03;11.30;99.90
55369;DHT22;41247;49.736;8.752;2023-05-10T04:20:43;11.30;99.90
55369;DHT22;41247;49.736;8.752;2023-05-10T04:24:24;11.30;99.90
55369;DHT22;41247;49.736;8.752;2023-05-10T04:28:05;11.30;99.90
55369;DHT22;41247;49.736;8.752;2023-05-10T04:31:45;11.30;99.90
55369;DHT22;41247;49.736;8.752;2023-05-10T04:35:26;11.30;99.90
55369;DHT22;41247;49.736;8.752;2023-05-10T04:39:07;11.30;99.90
55369;DHT22;41247;49.736;8.752;2023-05-10T04:42:47;11.30;99.90
55369;DHT22;41247;49.736;8.752;2023-05-10T04:46:28;11.40;99.90
55369;DHT22;41247;49.736;8.752;2023-05-10T04:50:09;11.30;99.90
55369;DHT22;41247;49.736;8.752;2023-05-10T04:53:49;11.30;99.90
55369;DHT22;41247;49.736;8.752;2023-05-10T04:57:30;11.30;99.90
55369;DHT22;41247;49.736;8.752;2023-05-10T05:01:10;11.30;99.90
55369;DHT22;41247;49.736;8.752;2023-05-10T05:04:51;11.30;99.90
55369;DHT22;41247;49.736;8.752;2023-05-10T05:08:32;11.30;99.90
55369;DHT22;41247;49.736;8.752;2023-05-10T05:12:12;11.30;99.90
55369;DHT22;41247;49.736;8.752;2023-05-10T05:15:53;11.30;99.90
55369;DHT22;41247;49.736;8.752;2023-05-10T05:19:34;11.30;99.90
55369;DHT22;41247;49.736;8.752;2023-05-10T05:23:14;11.30;99.90
55369;DHT22;41247;49.736;8.752;2023-05-10T05:26:55;11.30;99.90
55369;DHT22;41247;49.736;8.752;2023-05-10T05:30:35;11.30;99.90
55369;DHT22;41247;49.736;8.752;2023-05-10T05:34:16;11.30;99.90
55369;DHT22;41247;49.736;8.752;2023-05-10T05:37:57;11.40;99.90
55369;DHT22;41247;49.736;8.752;2023-05-10T05:41:37;11.40;99.90
55369;DHT22;41247;49.736;8.752;2023-05-10T05:45:18;11.50;99.90
55369;DHT22;41247;49.736;8.752;2023-05-10T05:48:58;11.50;99.90
55369;DHT22;41247;49.736;8.752;2023-05-10T05:52:39;11.60;99.90
55369;DHT22;41247;49.736;8.752;2023-05-10T05:56:20;11.70;99.90
55369;DHT22;41247;49.736;8.752;2023-05-10T06:00:00;11.80;99.90
55369;DHT22;41247;49.736;8.752;2023-05-10T06:03:41;11.80;99.90
55369;DHT22;41247;49.736;8.752;2023-05-10T06:07:22;11.80;99.90
55369;DHT22;41247;49.736;8.752;2023-05-10T06:11:02;11.80;99.90
55369;DHT22;41247;49.736;8.752;2023-05-10T06:14:43;11.90;99.90
55369;DHT22;41247;49.736;8.752;2023-05-10T06:18:24;11.90;99.90
55369;DHT22;41247;49.736;8.752;2023-05-10T06:22:04;12.00;99.90
55369;DHT22;41247;49.736;8.752;2023-05-10T06:25:45;12.00;99.90
55369;DHT22;41247;49.736;8.752;2023-05-10T06:29:26;12.00;99.90
55369;DHT22;41247;49.736;8.752;2023-05-10T06:33:06;12.00;99.90
55369;DHT22;41247;49.736;8.752;2023-05-10T06:36:47;12.00;99.90
55369;DHT22;41247;49.736;8.752;2023-05-10T06:40:28;12.00;99.90
55369;DHT22;41247;49.736;8.752;2023-05-10T06:44:08;12.10;99.90
55369;DHT22;41247;49.736;8.752;2023-05-10T06:47:49;12.10;99.90
55369;DHT22;41247;49.736;8.752;2023-05-10T06:51:29;12.20;99.90
55369;DHT22;41247;49.736;8.752;2023-05-10T06:55:10;12.30;99.90
55369;DHT22;41247;49.736;8.752;2023-05-10T06:58:51;12.50;99.90
55369;DHT22;41247;49.736;8.752;2023-05-10T07:02:31;12.60;99.90
55369;DHT22;41247;49.736;8.752;2023-05-10T07:06:12;12.60;99.90
55369;DHT22;41247;49.736;8.752;2023-05-10T07:09:53;12.50;99.90
55369;DHT22;41247;49.736;8.752;2023-05-10T07:13:34;12.40;99.90
55369;DHT22;41247;49.736;8.752;2023-05-10T07:17:14;12.30;99.90
55369;DHT22;41247;49.736;8.752;2023-05-10T07:20:56;12.30;99.90
55369;DHT22;41247;49.736;8.752;2023-05-10T07:24:37;12.30;99.90
55369;DHT22;41247;49.736;8.752;2023-05-10T07:28:18;12.40;99.90
55369;DHT22;41247;49.736;8.752;2023-05-10T07:31:59;12.50;99.90
55369;DHT22;41247;49.736;8.752;2023-05-10T07:35:39;12.50;99.90
55369;DHT22;41247;49.736;8.752;2023-05-10T07:39:20;12.50;99.90
55369;DHT22;41247;49.736;8.752;2023-05-10T07:43:01;12.50;99.90
55369;DHT22;41247;49.736;8.752;2023-05-10T07:46:41;12.60;99.90
55369;DHT22;41247;49.736;8.752;2023-05-10T07:50:22;12.70;99.90
55369;DHT22;41247;49.736;8.752;2023-05-10T07:54:02;12.80;99.90
55369;DHT22;41247;49.736;8.752;2023-05-10T07:57:43;12.90;99.90
55369;DHT22;41247;49.736;8.752;2023-05-10T08:01:24;13.00;99.90
55369;DHT22;41247;49.736;8.752;2023-05-10T08:05:05;13.10;99.90
55369;DHT22;41247;49.736;8.752;2023-05-10T08:08:47;13.10;99.90
55369;DHT22;41247;49.736;8.752;2023-05-10T08:12:28;13.00;99.90
55369;DHT22;41247;49.736;8.752;2023-05-10T08:16:08;13.00;99.90
55369;DHT22;41247;49.736;8.752;2023-05-10T08:19:49;13.00;99.90
55369;DHT22;41247;49.736;8.752;2023-05-10T08:23:29;12.90;99.90
55369;DHT22;41247;49.736;8.752;2023-05-10T08:27:10;12.90;99.90
55369;DHT22;41247;49.736;8.752;2023-05-10T08:30:51;12.80;99.90
55369;DHT22;41247;49.736;8.752;2023-05-10T08:34:31;12.80;99.90
55369;DHT22;41247;49.736;8.752;2023-05-10T08:38:12;12.70;99.90
55369;DHT22;41247;49.736;8.752;2023-05-10T08:41:54;12.70;99.90
55369;DHT22;41247;49.736;8.752;2023-05-10T08:45:45;12.70;99.90
55369;DHT22;41247;49.736;8.752;2023-05-10T08:49:27;12.90;99.90
55369;DHT22;41247;49.736;8.752;2023-05-10T08:53:12;13.20;99.90
55369;DHT22;41247;49.736;8.752;2023-05-10T08:56:53;13.40;99.90
55369;DHT22;41247;49.736;8.752;2023-05-10T09:00:34;13.50;99.90
55369;DHT22;41247;49.736;8.752;2023-05-10T09:04:16;13.60;99.90
55369;DHT22;41247;49.736;8.752;2023-05-10T09:07:56;13.80;99.90
55369;DHT22;41247;49.736;8.752;2023-05-10T09:11:37;14.10;99.90
55369;DHT22;41247;49.736;8.752;2023-05-10T09:15:21;14.50;99.90
55369;DHT22;41247;49.736;8.752;2023-05-10T09:19:01;14.80;99.90
55369;DHT22;41247;49.736;8.752;2023-05-10T09:22:43;15.20;99.90
55369;DHT22;41247;49.736;8.752;2023-05-10T09:26:24;15.30;99.90
55369;DHT22;41247;49.736;8.752;2023-05-10T09:30:05;15.40;99.90
55369;DHT22;41247;49.736;8.752;2023-05-10T09:33:48;15.40;99.90
55369;DHT22;41247;49.736;8.752;2023-05-10T09:37:30;15.50;99.90
55369;DHT22;41247;49.736;8.752;2023-05-10T09:41:23;15.60;99.90
55369;DHT22;41247;49.736;8.752;2023-05-10T09:45:04;15.90;99.90
55369;DHT22;41247;49.736;8.752;2023-05-10T09:48:47;16.00;99.90
55369;DHT22;41247;49.736;8.752;2023-05-10T09:52:29;15.90;99.90
55369;DHT22;41247;49.736;8.752;2023-05-10T09:56:10;15.80;99.90
55369;DHT22;41247;49.736;8.752;2023-05-10T09:59:51;15.90;99.90
55369;DHT22;41247;49.736;8.752;2023-05-10T10:03:32;15.90;99.90
55369;DHT22;41247;49.736;8.752;2023-05-10T10:07:12;15.90;99.90
55369;DHT22;41247;49.736;8.752;2023-05-10T10:10:53;15.80;99.90
55369;DHT22;41247;49.736;8.752;2023-05-10T10:14:34;15.70;99.90
55369;DHT22;41247;49.736;8.752;2023-05-10T10:18:16;15.90;99.90
55369;DHT22;41247;49.736;8.752;2023-05-10T10:21:56;16.50;99.90
55369;DHT22;41247;49.736;8.752;2023-05-10T10:25:38;16.80;99.90
55369;DHT22;41247;49.736;8.752;2023-05-10T10:29:29;17.00;99.90
55369;DHT22;41247;49.736;8.752;2023-05-10T10:37:46;16.60;99.90
55369;DHT22;41247;49.736;8.752;2023-05-10T10:41:30;16.40;99.90
55369;DHT22;41247;49.736;8.752;2023-05-10T10:45:15;16.70;99.90
55369;DHT22;41247;49.736;8.752;2023-05-10T10:49:09;16.70;99.90
55369;DHT22;41247;49.736;8.752;2023-05-10T10:52:50;16.70;99.90
55369;DHT22;41247;49.736;8.752;2023-05-10T10:56:31;16.50;99.90
55369;DHT22;41247;49.736;8.752;2023-05-10T11:00:31;16.70;99.90
55369;DHT22;41247;49.736;8.752;2023-05-10T11:04:17;16.80;99.90
55369;DHT22;41247;49.736;8.752;2023-05-10T11:08:00;17.10;99.90
55369;DHT22;41247;49.736;8.752;2023-05-10T11:11:54;17.30;99.90
55369;DHT22;41247;49.736;8.752;2023-05-10T11:15:36;17.50;99.90
55369;DHT22;41247;49.736;8.752;2023-05-10T11:19:20;17.60;99.90
55369;DHT22;41247;49.736;8.752;2023-05-10T11:23:14;18.00;99.90
55369;DHT22;41247;49.736;8.752;2023-05-10T11:26:54;18.50;99.90
55369;DHT22;41247;49.736;8.752;2023-05-10T11:30:36;18.20;99.90
55369;DHT22;41247;49.736;8.752;2023-05-10T11:34:29;17.70;99.90
55369;DHT22;41247;49.736;8.752;2023-05-10T11:38:12;17.70;99.90
55369;DHT22;41247;49.736;8.752;2023-05-10T11:41:54;17.50;99.90
55369;DHT22;41247;49.736;8.752;2023-05-10T11:45:35;17.00;99.90
55369;DHT22;41247;49.736;8.752;2023-05-10T11:49:16;16.60;99.90
55369;DHT22;41247;49.736;8.752;2023-05-10T11:52:57;16.50;99.90
55369;DHT22;41247;49.736;8.752;2023-05-10T11:56:39;16.40;99.90
55369;DHT22;41247;49.736;8.752;2023-05-10T12:00:21;16.50;99.90
55369;DHT22;41247;49.736;8.752;2023-05-10T12:04:02;16.90;99.90
55369;DHT22;41247;49.736;8.752;2023-05-10T12:07:42;17.30;99.90
55369;DHT22;41247;49.736;8.752;2023-05-10T12:11:25;17.50;99.90
55369;DHT22;41247;49.736;8.752;2023-05-10T12:15:23;17.90;99.90
55369;DHT22;41247;49.736;8.752;2023-05-10T12:19:04;18.40;99.90
55369;DHT22;41247;49.736;8.752;2023-05-10T12:22:53;18.30;99.90
55369;DHT22;41247;49.736;8.752;2023-05-10T12:26:36;18.10;99.90
55369;DHT22;41247;49.736;8.752;2023-05-10T12:34:05;17.80;99.90
55369;DHT22;41247;49.736;8.752;2023-05-10T12:37:48;17.80;99.90
55369;DHT22;41247;49.736;8.752;2023-05-10T12:41:28;18.10;99.90
55369;DHT22;41247;49.736;8.752;2023-05-10T12:45:09;18.30;99.90
55369;DHT22;41247;49.736;8.752;2023-05-10T12:48:50;18.70;99.90
55369;DHT22;41247;49.736;8.752;2023-05-10T12:52:31;18.70;99.90
55369;DHT22;41247;49.736;8.752;2023-05-10T12:56:12;18.50;99.90
55369;DHT22;41247;49.736;8.752;2023-05-10T12:59:53;18.40;99.90
55369;DHT22;41247;49.736;8.752;2023-05-10T13:03:34;18.20;99.90
55369;DHT22;41247;49.736;8.752;2023-05-10T13:07:14;18.00;99.90
55369;DHT22;41247;49.736;8.752;2023-05-10T13:10:55;17.70;99.90
55369;DHT22;41247;49.736;8.752;2023-05-10T13:14:36;17.40;99.90
55369;DHT22;41247;49.736;8.752;2023-05-10T13:18:16;17.30;99.90
55369;DHT22;41247;49.736;8.752;2023-05-10T13:21:57;17.30;99.90
55369;DHT22;41247;49.736;8.752;2023-05-10T13:25:37;17.30;99.90
55369;DHT22;41247;49.736;8.752;2023-05-10T13:29:18;17.10;99.90
55369;DHT22;41247;49.736;8.752;2023-05-10T13:32:59;16.80;99.90
55369;DHT22;41247;49.736;8.752;2023-05-10T13:36:39;16.70;99.90
55369;DHT22;41247;49.736;8.752;2023-05-10T13:40:20;16.60;99.90
55369;DHT22;41247;49.736;8.752;2023-05-10T13:44:00;16.50;99.90
55369;DHT22;41247;49.736;8.752;2023-05-10T13:47:41;16.70;99.90
55369;DHT22;41247;49.736;8.752;2023-05-10T13:51:22;17.30;99.90
55369;DHT22;41247;49.736;8.752;2023-05-10T13:55:03;17.90;99.90
55369;DHT22;41247;49.736;8.752;2023-05-10T13:58:44;18.00;99.90
55369;DHT22;41247;49.736;8.752;2023-05-10T14:02:24;18.00;99.90
55369;DHT22;41247;49.736;8.752;2023-05-10T14:06:05;17.50;99.90
55369;DHT22;41247;49.736;8.752;2023-05-10T14:09:46;17.10;99.90
55369;DHT22;41247;49.736;8.752;2023-05-10T14:13:26;16.50;99.90
55369;DHT22;41247;49.736;8.752;2023-05-10T14:17:07;16.20;99.90
55369;DHT22;41247;49.736;8.752;2023-05-10T14:20:47;15.90;99.90
55369;DHT22;41247;49.736;8.752;2023-05-10T14:24:28;15.70;99.90
55369;DHT22;41247;49.736;8.752;2023-05-10T14:28:09;15.70;99.90
55369;DHT22;41247;49.736;8.752;2023-05-10T14:31:50;15.70;99.90
55369;DHT22;41247;49.736;8.752;2023-05-10T14:35:30;15.80;99.90
55369;DHT22;41247;49.736;8.752;2023-05-10T14:39:11;15.90;99.90
55369;DHT22;41247;49.736;8.752;2023-05-10T14:42:52;15.90;99.90
55369;DHT22;41247;49.736;8.752;2023-05-10T14:46:37;15.90;99.90
55369;DHT22;41247;49.736;8.752;2023-05-10T14:50:18;15.70;99.90
55369;DHT22;41247;49.736;8.752;2023-05-10T14:53:59;15.60;99.90
55369;DHT22;41247;49.736;8.752;2023-05-10T14:57:40;15.50;99.90
55369;DHT22;41247;49.736;8.752;2023-05-10T15:01:24;15.50;99.90
55369;DHT22;41247;49.736;8.752;2023-05-10T15:05:04;15.70;99.90
55369;DHT22;41247;49.736;8.752;2023-05-10T15:08:47;16.00;99.90
55369;DHT22;41247;49.736;8.752;2023-05-10T15:12:27;16.00;99.90
55369;DHT22;41247;49.736;8.752;2023-05-10T15:16:08;16.00;99.90
55369;DHT22;41247;49.736;8.752;2023-05-10T15:19:49;16.10;99.90
55369;DHT22;41247;49.736;8.752;2023-05-10T15:23:29;16.30;99.90
55369;DHT22;41247;49.736;8.752;2023-05-10T15:27:10;16.50;99.90
55369;DHT22;41247;49.736;8.752;2023-05-10T15:30:51;16.90;99.90
55369;DHT22;41247;49.736;8.752;2023-05-10T15:34:31;17.20;99.90
55369;DHT22;41247;49.736;8.752;2023-05-10T15:38:12;17.40;99.90
55369;DHT22;41247;49.736;8.752;2023-05-10T15:41:53;17.50;99.90
55369;DHT22;41247;49.736;8.752;2023-05-10T15:45:34;17.40;99.90
55369;DHT22;41247;49.736;8.752;2023-05-10T15:49:14;17.30;99.90
55369;DHT22;41247;49.736;8.752;2023-05-10T15:52:55;17.20;99.90
55369;DHT22;41247;49.736;8.752;2023-05-10T15:56:36;17.10;99.90
55369;DHT22;41247;49.736;8.752;2023-05-10T16:00:16;17.10;99.90
55369;DHT22;41247;49.736;8.752;2023-05-10T16:03:57;17.10;99.90
55369;DHT22;41247;49.736;8.752;2023-05-10T16:07:38;17.10;99.90
55369;DHT22;41247;49.736;8.752;2023-05-10T16:11:18;17.10;99.90
55369;DHT22;41247;49.736;8.752;2023-05-10T16:14:59;17.10;99.90
55369;DHT22;41247;49.736;8.752;2023-05-10T16:18:40;17.20;99.90
55369;DHT22;41247;49.736;8.752;2023-05-10T16:22:20;17.40;99.90
55369;DHT22;41247;49.736;8.752;2023-05-10T16:26:01;17.40;99.90
55369;DHT22;41247;49.736;8.752;2023-05-10T16:29:42;17.40;99.90
55369;DHT22;41247;49.736;8.752;2023-05-10T16:33:22;17.40;99.90
55369;DHT22;41247;49.736;8.752;2023-05-10T16:37:03;17.50;99.90
55369;DHT22;41247;49.736;8.752;2023-05-10T16:40:43;17.70;99.90
55369;DHT22;41247;49.736;8.752;2023-05-10T16:44:24;17.90;99.90
55369;DHT22;41247;49.736;8.752;2023-05-10T16:48:05;17.90;99.90
55369;DHT22;41247;49.736;8.752;2023-05-10T16:51:46;18.00;99.90
55369;DHT22;41247;49.736;8.752;2023-05-10T16:55:26;18.00;99.90
55369;DHT22;41247;49.736;8.752;2023-05-10T16:59:07;18.00;99.90
55369;DHT22;41247;49.736;8.752;2023-05-10T17:02:47;17.90;99.90
55369;DHT22;41247;49.736;8.752;2023-05-10T17:06:28;17.80;99.90
55369;DHT22;41247;49.736;8.752;2023-05-10T17:10:09;17.60;99.90
55369;DHT22;41247;49.736;8.752;2023-05-10T17:13:50;17.40;99.90
55369;DHT22;41247;49.736;8.752;2023-05-10T17:17:31;17.40;99.90
55369;DHT22;41247;49.736;8.752;2023-05-10T17:21:12;17.20;99.90
55369;DHT22;41247;49.736;8.752;2023-05-10T17:24:52;17.10;99.90
55369;DHT22;41247;49.736;8.752;2023-05-10T17:28:33;17.00;99.90
55369;DHT22;41247;49.736;8.752;2023-05-10T17:32:14;16.80;99.90
55369;DHT22;41247;49.736;8.752;2023-05-10T17:35:54;16.80;99.90
55369;DHT22;41247;49.736;8.752;2023-05-10T17:39:35;16.60;99.90
55369;DHT22;41247;49.736;8.752;2023-05-10T17:43:16;16.40;99.90
55369;DHT22;41247;49.736;8.752;2023-05-10T17:46:56;16.20;99.90
55369;DHT22;41247;49.736;8.752;2023-05-10T17:50:37;15.90;99.90
55369;DHT22;41247;49.736;8.752;2023-05-10T17:54:21;15.70;99.90
55369;DHT22;41247;49.736;8.752;2023-05-10T17:58:01;15.50;99.90
55369;DHT22;41247;49.736;8.752;2023-05-10T18:01:42;15.40;99.90
55369;DHT22;41247;49.736;8.752;2023-05-10T18:05:22;15.30;99.90
55369;DHT22;41247;49.736;8.752;2023-05-10T18:09:03;15.20;99.90
55369;DHT22;41247;49.736;8.752;2023-05-10T18:12:44;15.00;99.90
55369;DHT22;41247;49.736;8.752;2023-05-10T18:16:25;14.90;99.90
55369;DHT22;41247;49.736;8.752;2023-05-10T18:20:06;14.70;99.90
55369;DHT22;41247;49.736;8.752;2023-05-10T18:23:47;14.60;99.90
55369;DHT22;41247;49.736;8.752;2023-05-10T18:27:27;14.50;99.90
55369;DHT22;41247;49.736;8.752;2023-05-10T18:31:08;14.40;99.90
55369;DHT22;41247;49.736;8.752;2023-05-10T18:34:48;14.20;99.90
55369;DHT22;41247;49.736;8.752;2023-05-10T18:38:29;14.10;99.90
55369;DHT22;41247;49.736;8.752;2023-05-10T18:42:10;14.00;99.90
55369;DHT22;41247;49.736;8.752;2023-05-10T18:45:50;13.80;99.90
55369;DHT22;41247;49.736;8.752;2023-05-10T18:49:31;13.60;99.90
55369;DHT22;41247;49.736;8.752;2023-05-10T18:53:11;13.40;99.90
55369;DHT22;41247;49.736;8.752;2023-05-10T18:56:52;13.20;99.90
55369;DHT22;41247;49.736;8.752;2023-05-10T19:00:32;13.10;99.90
55369;DHT22;41247;49.736;8.752;2023-05-10T19:04:13;12.90;99.90
55369;DHT22;41247;49.736;8.752;2023-05-10T19:07:54;12.70;99.90
55369;DHT22;41247;49.736;8.752;2023-05-10T19:11:35;12.60;99.90
55369;DHT22;41247;49.736;8.752;2023-05-10T19:15:16;12.40;99.90
55369;DHT22;41247;49.736;8.752;2023-05-10T19:18:56;12.20;99.90
55369;DHT22;41247;49.736;8.752;2023-05-10T19:22:37;12.10;99.90
55369;DHT22;41247;49.736;8.752;2023-05-10T19:26:18;11.90;99.90
55369;DHT22;41247;49.736;8.752;2023-05-10T19:29:58;11.80;99.90
55369;DHT22;41247;49.736;8.752;2023-05-10T19:33:39;11.70;99.90
55369;DHT22;41247;49.736;8.752;2023-05-10T19:37:19;11.60;99.90
55369;DHT22;41247;49.736;8.752;2023-05-10T19:41:00;11.50;99.90
55369;DHT22;41247;49.736;8.752;2023-05-10T19:44:41;11.30;99.90
55369;DHT22;41247;49.736;8.752;2023-05-10T19:48:21;11.30;99.90
55369;DHT22;41247;49.736;8.752;2023-05-10T19:52:03;11.30;99.90
55369;DHT22;41247;49.736;8.752;2023-05-10T19:55:44;11.30;99.90
55369;DHT22;41247;49.736;8.752;2023-05-10T19:59:25;11.20;99.90
55369;DHT22;41247;49.736;8.752;2023-05-10T20:03:05;11.20;99.90
55369;DHT22;41247;49.736;8.752;2023-05-10T20:06:46;11.20;99.90
55369;DHT22;41247;49.736;8.752;2023-05-10T20:10:27;11.20;99.90
55369;DHT22;41247;49.736;8.752;2023-05-10T20:14:08;11.20;99.90
55369;DHT22;41247;49.736;8.752;2023-05-10T20:17:50;11.10;99.90
55369;DHT22;41247;49.736;8.752;2023-05-10T20:21:30;11.10;99.90
55369;DHT22;41247;49.736;8.752;2023-05-10T20:25:12;11.10;99.90
55369;DHT22;41247;49.736;8.752;2023-05-10T20:28:53;11.30;99.90
55369;DHT22;41247;49.736;8.752;2023-05-10T20:32:33;11.40;99.90
55369;DHT22;41247;49.736;8.752;2023-05-10T20:36:14;11.40;99.90
55369;DHT22;41247;49.736;8.752;2023-05-10T20:39:55;11.50;99.90
55369;DHT22;41247;49.736;8.752;2023-05-10T20:43:35;11.50;99.90
55369;DHT22;41247;49.736;8.752;2023-05-10T20:47:16;11.40;99.90
55369;DHT22;41247;49.736;8.752;2023-05-10T20:50:57;11.40;99.90
55369;DHT22;41247;49.736;8.752;2023-05-10T20:54:38;11.40;99.90
55369;DHT22;41247;49.736;8.752;2023-05-10T20:58:18;11.40;99.90
55369;DHT22;41247;49.736;8.752;2023-05-10T21:01:59;11.30;99.90
55369;DHT22;41247;49.736;8.752;2023-05-10T21:05:40;11.40;99.90
55369;DHT22;41247;49.736;8.752;2023-05-10T21:09:20;11.50;99.90
55369;DHT22;41247;49.736;8.752;2023-05-10T21:13:01;11.40;99.90
55369;DHT22;41247;49.736;8.752;2023-05-10T21:16:41;11.40;99.90
55369;DHT22;41247;49.736;8.752;2023-05-10T21:20:22;11.50;99.90
55369;DHT22;41247;49.736;8.752;2023-05-10T21:24:03;11.40;99.90
55369;DHT22;41247;49.736;8.752;2023-05-10T21:27:43;11.40;99.90
55369;DHT22;41247;49.736;8.752;2023-05-10T21:31:24;11.40;99.90
55369;DHT22;41247;49.736;8.752;2023-05-10T21:35:05;11.30;99.90
55369;DHT22;41247;49.736;8.752;2023-05-10T21:38:46;11.30;99.90
55369;DHT22;41247;49.736;8.752;2023-05-10T21:42:27;11.30;99.90
55369;DHT22;41247;49.736;8.752;2023-05-10T21:46:08;11.20;99.90
55369;DHT22;41247;49.736;8.752;2023-05-10T21:49:48;11.20;99.90
55369;DHT22;41247;49.736;8.752;2023-05-10T21:53:29;11.10;99.90
55369;DHT22;41247;49.736;8.752;2023-05-10T21:57:09;11.10;99.90
55369;DHT22;41247;49.736;8.752;2023-05-10T22:00:50;11.10;99.90
55369;DHT22;41247;49.736;8.752;2023-05-10T22:04:31;11.00;99.90
55369;DHT22;41247;49.736;8.752;2023-05-10T22:08:11;11.00;99.90
55369;DHT22;41247;49.736;8.752;2023-05-10T22:11:52;11.00;99.90
55369;DHT22;41247;49.736;8.752;2023-05-10T22:15:33;11.00;99.90
55369;DHT22;41247;49.736;8.752;2023-05-10T22:19:13;10.90;99.90
55369;DHT22;41247;49.736;8.752;2023-05-10T22:22:54;11.00;99.90
55369;DHT22;41247;49.736;8.752;2023-05-10T22:26:34;11.00;99.90
55369;DHT22;41247;49.736;8.752;2023-05-10T22:30:15;11.00;99.90
55369;DHT22;41247;49.736;8.752;2023-05-10T22:33:56;11.00;99.90
55369;DHT22;41247;49.736;8.752;2023-05-10T22:37:36;11.00;99.90
55369;DHT22;41247;49.736;8.752;2023-05-10T22:41:17;10.90;99.90
55369;DHT22;41247;49.736;8.752;2023-05-10T22:44:57;10.90;99.90
55369;DHT22;41247;49.736;8.752;2023-05-10T22:48:38;10.80;99.90
55369;DHT22;41247;49.736;8.752;2023-05-10T22:52:19;10.80;99.90
55369;DHT22;41247;49.736;8.752;2023-05-10T22:56:00;10.80;99.90
55369;DHT22;41247;49.736;8.752;2023-05-10T22:59:41;10.70;99.90
55369;DHT22;41247;49.736;8.752;2023-05-10T23:03:21;10.60;99.90
55369;DHT22;41247;49.736;8.752;2023-05-10T23:07:02;10.60;99.90
55369;DHT22;41247;49.736;8.752;2023-05-10T23:10:43;10.60;99.90
55369;DHT22;41247;49.736;8.752;2023-05-10T23:14:23;10.60;99.90
55369;DHT22;41247;49.736;8.752;2023-05-10T23:18:04;10.60;99.90
55369;DHT22;41247;49.736;8.752;2023-05-10T23:21:45;10.60;99.90
55369;DHT22;41247;49.736;8.752;2023-05-10T23:25:25;10.60;99.90
55369;DHT22;41247;49.736;8.752;2023-05-10T23:29:06;10.60;99.90